sensor_id;sensor_type;location;lat;lon;timestamp;temperature;humidity
81311;DHT22;70779;52.506;5.492;2023-10-31T05:45:33;12.90;74.00
81311;DHT22;70779;52.506;5.492;2023-10-31T05:47:59;12.90;74.00
81311;DHT22;70779;52.506;5.492;2023-10-31T05:50:26;13.00;73.90
81311;DHT22;70779;52.506;5.492;2023-10-31T05:52:52;13.00;73.80
81311;DHT22;70779;52.506;5.492;2023-10-31T05:55:18;12.90;73.70
81311;DHT22;70779;52.506;5.492;2023-10-31T05:57:44;12.90;73.70
81311;DHT22;70779;52.506;5.492;2023-10-31T06:00:10;12.80;73.80
81311;DHT22;70779;52.506;5.492;2023-10-31T06:02:39;12.80;73.90
81311;DHT22;70779;52.506;5.492;2023-10-31T06:05:06;12.80;74.00
81311;DHT22;70779;52.506;5.492;2023-10-31T06:07:32;12.90;74.10
81311;DHT22;70779;52.506;5.492;2023-10-31T06:09:59;12.90;74.00
81311;DHT22;70779;52.506;5.492;2023-10-31T06:12:25;12.90;74.10
81311;DHT22;70779;52.506;5.492;2023-10-31T06:14:51;12.90;74.10
81311;DHT22;70779;52.506;5.492;2023-10-31T06:17:17;12.90;74.00
81311;DHT22;70779;52.506;5.492;2023-10-31T06:19:43;12.90;73.90
81311;DHT22;70779;52.506;5.492;2023-10-31T06:22:12;12.90;73.80
81311;DHT22;70779;52.506;5.492;2023-10-31T06:24:38;12.90;73.90
81311;DHT22;70779;52.506;5.492;2023-10-31T06:27:05;12.90;74.00
81311;DHT22;70779;52.506;5.492;2023-10-31T06:29:31;12.90;74.00
81311;DHT22;70779;52.506;5.492;2023-10-31T06:31:58;13.00;73.90
81311;DHT22;70779;52.506;5.492;2023-10-31T06:34:24;13.00;73.90
81311;DHT22;70779;52.506;5.492;2023-10-31T06:36:50;13.00;73.80
81311;DHT22;70779;52.506;5.492;2023-10-31T06:39:18;13.00;74.00
81311;DHT22;70779;52.506;5.492;2023-10-31T06:41:44;13.00;74.00
81311;DHT22;70779;52.506;5.492;2023-10-31T06:44:10;13.00;74.00
81311;DHT22;70779;52.506;5.492;2023-10-31T06:46:36;13.00;74.00
81311;DHT22;70779;52.506;5.492;2023-10-31T06:49:02;13.00;74.10
81311;DHT22;70779;52.506;5.492;2023-10-31T06:51:28;13.00;74.10
81311;DHT22;70779;52.506;5.492;2023-10-31T06:53:54;13.10;74.00
81311;DHT22;70779;52.506;5.492;2023-10-31T06:56:21;13.10;74.00
81311;DHT22;70779;52.506;5.492;2023-10-31T06:58:47;13.10;74.00
81311;DHT22;70779;52.506;5.492;2023-10-31T07:01:14;13.10;74.10
81311;DHT22;70779;52.506;5.492;2023-10-31T07:03:44;13.10;74.10
81311;DHT22;70779;52.506;5.492;2023-10-31T07:06:10;13.10;74.10
81311;DHT22;70779;52.506;5.492;2023-10-31T07:08:36;13.10;74.10
81311;DHT22;70779;52.506;5.492;2023-10-31T07:11:02;13.20;74.10
81311;DHT22;70779;52.506;5.492;2023-10-31T07:13:30;13.20;74.00
81311;DHT22;70779;52.506;5.492;2023-10-31T07:15:56;13.20;74.00
81311;DHT22;70779;52.506;5.492;2023-10-31T07:18:22;13.20;73.90
81311;DHT22;70779;52.506;5.492;2023-10-31T07:20:48;13.20;73.90
81311;DHT22;70779;52.506;5.492;2023-10-31T07:23:15;13.20;74.00
81311;DHT22;70779;52.506;5.492;2023-10-31T07:25:41;13.20;73.90
81311;DHT22;70779;52.506;5.492;2023-10-31T07:28:07;13.20;74.00
81311;DHT22;70779;52.506;5.492;2023-10-31T07:30:34;13.20;74.00
81311;DHT22;70779;52.506;5.492;2023-10-31T07:33:00;13.20;74.10
81311;DHT22;70779;52.506;5.492;2023-10-31T07:35:26;13.20;74.00
81311;DHT22;70779;52.506;5.492;2023-10-31T07:37:53;13.20;74.00
81311;DHT22;70779;52.506;5.492;2023-10-31T07:40:19;13.30;74.00
81311;DHT22;70779;52.506;5.492;2023-10-31T07:42:45;13.30;74.00
81311;DHT22;70779;52.506;5.492;2023-10-31T07:45:11;13.30;74.00
81311;DHT22;70779;52.506;5.492;2023-10-31T07:47:37;13.30;74.10
81311;DHT22;70779;52.506;5.492;2023-10-31T07:50:04;13.30;74.00
81311;DHT22;70779;52.506;5.492;2023-10-31T07:52:31;13.30;74.10
81311;DHT22;70779;52.506;5.492;2023-10-31T07:54:57;13.30;74.10
81311;DHT22;70779;52.506;5.492;2023-10-31T07:57:23;13.30;74.10
81311;DHT22;70779;52.506;5.492;2023-10-31T07:59:49;13.40;74.20
81311;DHT22;70779;52.506;5.492;2023-10-31T08:02:15;13.50;74.40
81311;DHT22;70779;52.506;5.492;2023-10-31T08:04:42;13.60;74.40
81311;DHT22;70779;52.506;5.492;2023-10-31T08:07:08;13.70;74.20
81311;DHT22;70779;52.506;5.492;2023-10-31T08:09:34;13.90;74.10
81311;DHT22;70779;52.506;5.492;2023-10-31T08:12:00;14.00;73.80
81311;DHT22;70779;52.506;5.492;2023-10-31T08:14:26;14.10;73.50
81311;DHT22;70779;52.506;5.492;2023-10-31T08:16:52;14.20;73.30
81311;DHT22;70779;52.506;5.492;2023-10-31T08:19:18;14.20;73.20
81311;DHT22;70779;52.506;5.492;2023-10-31T08:21:44;14.30;73.20
81311;DHT22;70779;52.506;5.492;2023-10-31T08:24:10;14.40;73.20
81311;DHT22;70779;52.506;5.492;2023-10-31T08:26:36;14.50;73.00
81311;DHT22;70779;52.506;5.492;2023-10-31T08:29:02;14.50;72.60
81311;DHT22;70779;52.506;5.492;2023-10-31T08:31:29;14.50;72.40
81311;DHT22;70779;52.506;5.492;2023-10-31T08:33:55;14.50;72.60
81311;DHT22;70779;52.506;5.492;2023-10-31T08:36:21;14.60;73.40
81311;DHT22;70779;52.506;5.492;2023-10-31T08:38:47;14.80;72.80
81311;DHT22;70779;52.506;5.492;2023-10-31T08:41:15;15.00;72.30
81311;DHT22;70779;52.506;5.492;2023-10-31T08:43:46;15.30;72.10
81311;DHT22;70779;52.506;5.492;2023-10-31T08:46:12;15.40;71.30
81311;DHT22;70779;52.506;5.492;2023-10-31T08:48:39;15.40;71.20
81311;DHT22;70779;52.506;5.492;2023-10-31T08:51:05;15.30;71.00
81311;DHT22;70779;52.506;5.492;2023-10-31T08:53:31;15.30;71.20
81311;DHT22;70779;52.506;5.492;2023-10-31T08:55:57;15.30;71.20
81311;DHT22;70779;52.506;5.492;2023-10-31T08:58:23;15.20;71.20
81311;DHT22;70779;52.506;5.492;2023-10-31T09:00:49;15.20;71.40
81311;DHT22;70779;52.506;5.492;2023-10-31T09:03:15;15.30;72.00
81311;DHT22;70779;52.506;5.492;2023-10-31T09:05:41;15.60;72.50
81311;DHT22;70779;52.506;5.492;2023-10-31T09:08:08;16.30;72.20
81311;DHT22;70779;52.506;5.492;2023-10-31T09:10:36;17.10;70.20
81311;DHT22;70779;52.506;5.492;2023-10-31T09:13:07;17.60;68.90
81311;DHT22;70779;52.506;5.492;2023-10-31T09:15:33;18.00;67.90
81311;DHT22;70779;52.506;5.492;2023-10-31T09:17:59;18.10;67.80
81311;DHT22;70779;52.506;5.492;2023-10-31T09:20:25;18.40;67.30
81311;DHT22;70779;52.506;5.492;2023-10-31T09:22:51;18.70;66.90
81311;DHT22;70779;52.506;5.492;2023-10-31T09:25:18;19.00;65.80
81311;DHT22;70779;52.506;5.492;2023-10-31T09:27:44;19.00;65.00
81311;DHT22;70779;52.506;5.492;2023-10-31T09:30:10;18.70;64.90
81311;DHT22;70779;52.506;5.492;2023-10-31T09:32:37;18.30;65.10
81311;DHT22;70779;52.506;5.492;2023-10-31T09:35:03;18.00;66.10
81311;DHT22;70779;52.506;5.492;2023-10-31T09:37:29;18.00;67.30
81311;DHT22;70779;52.506;5.492;2023-10-31T09:39:55;18.30;66.50
81311;DHT22;70779;52.506;5.492;2023-10-31T09:42:21;18.50;65.00
81311;DHT22;70779;52.506;5.492;2023-10-31T09:44:47;18.20;64.20
81311;DHT22;70779;52.506;5.492;2023-10-31T09:47:15;17.90;64.60
81311;DHT22;70779;52.506;5.492;2023-10-31T09:49:41;17.50;65.00
81311;DHT22;70779;52.506;5.492;2023-10-31T09:52:07;17.20;66.10
81311;DHT22;70779;52.506;5.492;2023-10-31T09:54:34;17.10;66.40
81311;DHT22;70779;52.506;5.492;2023-10-31T09:57:00;17.10;66.50
81311;DHT22;70779;52.506;5.492;2023-10-31T09:59:26;17.10;66.70
81311;DHT22;70779;52.506;5.492;2023-10-31T10:01:52;17.20;66.80
81311;DHT22;70779;52.506;5.492;2023-10-31T10:04:19;17.20;66.70
81311;DHT22;70779;52.506;5.492;2023-10-31T10:06:58;17.10;66.60
81311;DHT22;70779;52.506;5.492;2023-10-31T10:09:24;17.00;66.90
81311;DHT22;70779;52.506;5.492;2023-10-31T10:11:51;17.00;67.20
81311;DHT22;70779;52.506;5.492;2023-10-31T10:14:18;17.20;67.20
81311;DHT22;70779;52.506;5.492;2023-10-31T10:16:44;17.20;67.10
81311;DHT22;70779;52.506;5.492;2023-10-31T10:19:18;17.20;66.80
81311;DHT22;70779;52.506;5.492;2023-10-31T10:21:51;17.10;66.70
81311;DHT22;70779;52.506;5.492;2023-10-31T10:24:18;17.00;66.80
81311;DHT22;70779;52.506;5.492;2023-10-31T10:26:45;17.00;66.90
81311;DHT22;70779;52.506;5.492;2023-10-31T10:29:11;17.00;67.00
81311;DHT22;70779;52.506;5.492;2023-10-31T10:31:37;17.00;66.60
81311;DHT22;70779;52.506;5.492;2023-10-31T10:34:04;17.00;66.80
81311;DHT22;70779;52.506;5.492;2023-10-31T10:36:32;17.00;66.60
81311;DHT22;70779;52.506;5.492;2023-10-31T10:38:59;17.00;66.20
81311;DHT22;70779;52.506;5.492;2023-10-31T10:41:26;17.00;66.20
81311;DHT22;70779;52.506;5.492;2023-10-31T10:44:13;17.00;66.20
81311;DHT22;70779;52.506;5.492;2023-10-31T10:46:40;17.00;66.30
81311;DHT22;70779;52.506;5.492;2023-10-31T10:49:07;16.90;66.20
81311;DHT22;70779;52.506;5.492;2023-10-31T10:51:52;16.90;65.90
81311;DHT22;70779;52.506;5.492;2023-10-31T10:54:39;16.90;65.50
81311;DHT22;70779;52.506;5.492;2023-10-31T10:57:32;16.70;65.50
81311;DHT22;70779;52.506;5.492;2023-10-31T11:00:04;16.60;65.10
81311;DHT22;70779;52.506;5.492;2023-10-31T11:02:32;16.50;65.70
81311;DHT22;70779;52.506;5.492;2023-10-31T11:04:58;16.50;65.90
81311;DHT22;70779;52.506;5.492;2023-10-31T11:07:27;16.50;65.60
81311;DHT22;70779;52.506;5.492;2023-10-31T11:09:55;16.60;65.60
81311;DHT22;70779;52.506;5.492;2023-10-31T11:12:22;16.70;65.20
81311;DHT22;70779;52.506;5.492;2023-10-31T11:14:48;16.70;65.10
81311;DHT22;70779;52.506;5.492;2023-10-31T11:17:24;16.80;65.30
81311;DHT22;70779;52.506;5.492;2023-10-31T11:19:52;17.00;65.00
81311;DHT22;70779;52.506;5.492;2023-10-31T11:22:18;17.10;64.10
81311;DHT22;70779;52.506;5.492;2023-10-31T11:24:45;17.20;63.90
81311;DHT22;70779;52.506;5.492;2023-10-31T11:27:11;17.20;63.90
81311;DHT22;70779;52.506;5.492;2023-10-31T11:29:37;17.10;63.50
81311;DHT22;70779;52.506;5.492;2023-10-31T11:32:06;17.00;63.60
81311;DHT22;70779;52.506;5.492;2023-10-31T11:34:37;16.90;63.70
81311;DHT22;70779;52.506;5.492;2023-10-31T11:42:41;16.50;63.90
81311;DHT22;70779;52.506;5.492;2023-10-31T11:45:10;16.40;64.20
81311;DHT22;70779;52.506;5.492;2023-10-31T11:47:49;16.40;64.30
81311;DHT22;70779;52.506;5.492;2023-10-31T11:50:17;16.40;64.50
81311;DHT22;70779;52.506;5.492;2023-10-31T11:52:43;16.30;64.50
81311;DHT22;70779;52.506;5.492;2023-10-31T11:55:11;16.20;64.40
81311;DHT22;70779;52.506;5.492;2023-10-31T11:57:38;16.20;64.50
81311;DHT22;70779;52.506;5.492;2023-10-31T12:00:06;16.10;64.50
81311;DHT22;70779;52.506;5.492;2023-10-31T12:02:39;16.10;64.50
81311;DHT22;70779;52.506;5.492;2023-10-31T12:05:12;16.10;64.70
81311;DHT22;70779;52.506;5.492;2023-10-31T12:07:43;16.10;64.70
81311;DHT22;70779;52.506;5.492;2023-10-31T12:10:09;16.10;64.90
81311;DHT22;70779;52.506;5.492;2023-10-31T12:12:35;16.00;64.90
81311;DHT22;70779;52.506;5.492;2023-10-31T12:15:08;16.10;64.70
81311;DHT22;70779;52.506;5.492;2023-10-31T12:17:36;16.00;64.40
81311;DHT22;70779;52.506;5.492;2023-10-31T12:20:06;16.10;64.60
81311;DHT22;70779;52.506;5.492;2023-10-31T12:22:33;16.10;64.40
81311;DHT22;70779;52.506;5.492;2023-10-31T12:25:03;16.10;64.20
81311;DHT22;70779;52.506;5.492;2023-10-31T12:27:47;16.10;63.90
81311;DHT22;70779;52.506;5.492;2023-10-31T12:30:20;16.10;63.70
81311;DHT22;70779;52.506;5.492;2023-10-31T12:32:54;16.10;64.00
81311;DHT22;70779;52.506;5.492;2023-10-31T12:35:22;16.10;63.70
81311;DHT22;70779;52.506;5.492;2023-10-31T12:37:50;16.20;63.50
81311;DHT22;70779;52.506;5.492;2023-10-31T12:40:20;16.20;62.80
81311;DHT22;70779;52.506;5.492;2023-10-31T12:42:48;16.20;62.80
81311;DHT22;70779;52.506;5.492;2023-10-31T12:45:15;16.20;62.90
81311;DHT22;70779;52.506;5.492;2023-10-31T12:47:43;16.20;62.80
81311;DHT22;70779;52.506;5.492;2023-10-31T12:50:12;16.20;63.00
81311;DHT22;70779;52.506;5.492;2023-10-31T12:52:52;16.20;63.00
81311;DHT22;70779;52.506;5.492;2023-10-31T12:55:26;16.20;63.20
81311;DHT22;70779;52.506;5.492;2023-10-31T12:57:53;16.20;62.70
81311;DHT22;70779;52.506;5.492;2023-10-31T13:00:20;16.20;62.90
81311;DHT22;70779;52.506;5.492;2023-10-31T13:03:05;16.20;62.80
81311;DHT22;70779;52.506;5.492;2023-10-31T13:05:32;16.30;62.40
81311;DHT22;70779;52.506;5.492;2023-10-31T13:08:02;16.20;62.50
81311;DHT22;70779;52.506;5.492;2023-10-31T13:10:30;16.20;62.50
81311;DHT22;70779;52.506;5.492;2023-10-31T13:13:00;16.20;62.30
81311;DHT22;70779;52.506;5.492;2023-10-31T13:15:26;16.20;62.40
81311;DHT22;70779;52.506;5.492;2023-10-31T13:17:52;16.20;62.30
81311;DHT22;70779;52.506;5.492;2023-10-31T13:20:20;16.10;62.00
81311;DHT22;70779;52.506;5.492;2023-10-31T13:22:47;16.10;62.20
81311;DHT22;70779;52.506;5.492;2023-10-31T13:25:14;16.10;62.00
81311;DHT22;70779;52.506;5.492;2023-10-31T13:27:43;16.00;62.20
81311;DHT22;70779;52.506;5.492;2023-10-31T13:30:11;16.00;62.30
81311;DHT22;70779;52.506;5.492;2023-10-31T13:32:40;15.90;62.50
81311;DHT22;70779;52.506;5.492;2023-10-31T13:35:07;15.90;62.40
81311;DHT22;70779;52.506;5.492;2023-10-31T13:37:37;15.90;62.00
81311;DHT22;70779;52.506;5.492;2023-10-31T13:40:03;15.80;61.80
81311;DHT22;70779;52.506;5.492;2023-10-31T13:42:30;15.80;62.20
81311;DHT22;70779;52.506;5.492;2023-10-31T13:44:56;15.80;62.50
81311;DHT22;70779;52.506;5.492;2023-10-31T13:47:22;15.80;62.70
81311;DHT22;70779;52.506;5.492;2023-10-31T13:49:48;15.80;62.80
81311;DHT22;70779;52.506;5.492;2023-10-31T13:52:14;15.80;63.00
81311;DHT22;70779;52.506;5.492;2023-10-31T13:54:42;15.90;63.00
81311;DHT22;70779;52.506;5.492;2023-10-31T13:57:09;15.80;63.00
81311;DHT22;70779;52.506;5.492;2023-10-31T13:59:35;15.80;63.20
81311;DHT22;70779;52.506;5.492;2023-10-31T14:02:01;15.80;63.40
81311;DHT22;70779;52.506;5.492;2023-10-31T14:04:27;15.80;63.60
81311;DHT22;70779;52.506;5.492;2023-10-31T14:06:54;15.80;63.50
81311;DHT22;70779;52.506;5.492;2023-10-31T14:09:20;15.80;63.40
81311;DHT22;70779;52.506;5.492;2023-10-31T14:11:47;15.90;63.50
81311;DHT22;70779;52.506;5.492;2023-10-31T14:14:13;16.00;63.70
81311;DHT22;70779;52.506;5.492;2023-10-31T14:16:40;16.00;63.80
81311;DHT22;70779;52.506;5.492;2023-10-31T14:19:07;16.10;63.70
81311;DHT22;70779;52.506;5.492;2023-10-31T14:21:34;16.20;63.50
81311;DHT22;70779;52.506;5.492;2023-10-31T14:24:01;16.20;63.40
81311;DHT22;70779;52.506;5.492;2023-10-31T14:26:29;16.20;63.30
81311;DHT22;70779;52.506;5.492;2023-10-31T14:28:56;16.30;63.50
81311;DHT22;70779;52.506;5.492;2023-10-31T14:31:22;16.30;63.60
81311;DHT22;70779;52.506;5.492;2023-10-31T14:33:48;16.20;63.80
81311;DHT22;70779;52.506;5.492;2023-10-31T14:36:14;16.20;64.00
81311;DHT22;70779;52.506;5.492;2023-10-31T14:38:41;16.20;64.20
81311;DHT22;70779;52.506;5.492;2023-10-31T14:41:07;16.20;64.40
81311;DHT22;70779;52.506;5.492;2023-10-31T14:43:34;16.20;64.50
81311;DHT22;70779;52.506;5.492;2023-10-31T14:46:01;16.20;64.60
81311;DHT22;70779;52.506;5.492;2023-10-31T14:48:28;16.20;64.70
81311;DHT22;70779;52.506;5.492;2023-10-31T14:50:54;16.10;64.90
81311;DHT22;70779;52.506;5.492;2023-10-31T14:53:23;16.10;65.00
81311;DHT22;70779;52.506;5.492;2023-10-31T14:55:49;16.00;65.20
81311;DHT22;70779;52.506;5.492;2023-10-31T14:58:15;16.00;65.40
81311;DHT22;70779;52.506;5.492;2023-10-31T15:00:41;16.00;65.50
81311;DHT22;70779;52.506;5.492;2023-10-31T15:03:07;16.00;65.60
81311;DHT22;70779;52.506;5.492;2023-10-31T15:05:33;16.00;65.80
81311;DHT22;70779;52.506;5.492;2023-10-31T15:08:00;16.00;66.20
81311;DHT22;70779;52.506;5.492;2023-10-31T15:10:26;16.00;66.40
81311;DHT22;70779;52.506;5.492;2023-10-31T15:12:55;15.90;66.50
81311;DHT22;70779;52.506;5.492;2023-10-31T15:15:21;15.80;66.60
81311;DHT22;70779;52.506;5.492;2023-10-31T15:17:48;15.80;66.80
81311;DHT22;70779;52.506;5.492;2023-10-31T15:20:14;15.70;67.00
81311;DHT22;70779;52.506;5.492;2023-10-31T15:22:41;15.60;67.20
81311;DHT22;70779;52.506;5.492;2023-10-31T15:25:09;15.60;67.50
81311;DHT22;70779;52.506;5.492;2023-10-31T15:27:35;15.50;67.70
81311;DHT22;70779;52.506;5.492;2023-10-31T15:30:01;15.40;68.00
81311;DHT22;70779;52.506;5.492;2023-10-31T15:32:28;15.30;68.20
81311;DHT22;70779;52.506;5.492;2023-10-31T15:34:54;15.20;68.50
81311;DHT22;70779;52.506;5.492;2023-10-31T15:37:20;15.10;68.70
81311;DHT22;70779;52.506;5.492;2023-10-31T15:39:47;15.00;69.00
81311;DHT22;70779;52.506;5.492;2023-10-31T15:42:17;15.00;69.30
81311;DHT22;70779;52.506;5.492;2023-10-31T15:44:43;14.90;69.30
81311;DHT22;70779;52.506;5.492;2023-10-31T15:47:09;14.80;69.20
81311;DHT22;70779;52.506;5.492;2023-10-31T15:49:35;14.60;69.40
81311;DHT22;70779;52.506;5.492;2023-10-31T15:52:04;14.50;69.70
81311;DHT22;70779;52.506;5.492;2023-10-31T15:54:31;14.40;69.90
81311;DHT22;70779;52.506;5.492;2023-10-31T15:56:58;14.30;70.10
81311;DHT22;70779;52.506;5.492;2023-10-31T15:59:27;14.20;70.30
81311;DHT22;70779;52.506;5.492;2023-10-31T16:01:54;14.10;70.40
81311;DHT22;70779;52.506;5.492;2023-10-31T16:04:20;14.10;70.70
81311;DHT22;70779;52.506;5.492;2023-10-31T16:06:49;14.00;70.70
81311;DHT22;70779;52.506;5.492;2023-10-31T16:09:15;14.00;70.80
81311;DHT22;70779;52.506;5.492;2023-10-31T16:11:41;13.90;71.00
81311;DHT22;70779;52.506;5.492;2023-10-31T16:14:07;13.90;71.00
81311;DHT22;70779;52.506;5.492;2023-10-31T16:16:33;13.90;71.00
81311;DHT22;70779;52.506;5.492;2023-10-31T16:19:00;13.90;71.00
81311;DHT22;70779;52.506;5.492;2023-10-31T16:21:26;13.80;71.00
81311;DHT22;70779;52.506;5.492;2023-10-31T16:23:52;13.70;71.10
81311;DHT22;70779;52.506;5.492;2023-10-31T16:26:21;13.70;71.10
81311;DHT22;70779;52.506;5.492;2023-10-31T16:28:48;13.70;71.20
81311;DHT22;70779;52.506;5.492;2023-10-31T16:31:16;13.70;71.20
81311;DHT22;70779;52.506;5.492;2023-10-31T16:33:42;13.70;71.20
81311;DHT22;70779;52.506;5.492;2023-10-31T16:36:09;13.70;71.10
81311;DHT22;70779;52.506;5.492;2023-10-31T16:38:35;13.60;71.10
81311;DHT22;70779;52.506;5.492;2023-10-31T16:41:02;13.60;71.20
81311;DHT22;70779;52.506;5.492;2023-10-31T16:43:29;13.70;71.20
81311;DHT22;70779;52.506;5.492;2023-10-31T16:45:56;13.60;71.10
81311;DHT22;70779;52.506;5.492;2023-10-31T16:48:22;13.60;71.20
81311;DHT22;70779;52.506;5.492;2023-10-31T16:50:48;13.60;71.20
81311;DHT22;70779;52.506;5.492;2023-10-31T16:53:15;13.60;71.10
81311;DHT22;70779;52.506;5.492;2023-10-31T16:55:41;13.60;71.10
81311;DHT22;70779;52.506;5.492;2023-10-31T16:58:07;13.60;71.10
81311;DHT22;70779;52.506;5.492;2023-10-31T17:00:39;13.60;71.10
81311;DHT22;70779;52.506;5.492;2023-10-31T17:03:06;13.60;71.10
81311;DHT22;70779;52.506;5.492;2023-10-31T17:05:38;13.50;71.10
81311;DHT22;70779;52.506;5.492;2023-10-31T17:08:04;13.50;71.20
81311;DHT22;70779;52.506;5.492;2023-10-31T17:10:30;13.50;71.10
81311;DHT22;70779;52.506;5.492;2023-10-31T17:12:57;13.50;71.10
81311;DHT22;70779;52.506;5.492;2023-10-31T17:15:23;13.50;71.10
81311;DHT22;70779;52.506;5.492;2023-10-31T17:17:50;13.50;71.10
81311;DHT22;70779;52.506;5.492;2023-10-31T17:20:16;13.50;71.20
81311;DHT22;70779;52.506;5.492;2023-10-31T17:22:42;13.50;71.20
81311;DHT22;70779;52.506;5.492;2023-10-31T17:25:09;13.50;71.20
81311;DHT22;70779;52.506;5.492;2023-10-31T17:27:35;13.50;71.20
81311;DHT22;70779;52.506;5.492;2023-10-31T17:30:01;13.50;71.20
81311;DHT22;70779;52.506;5.492;2023-10-31T17:32:27;13.50;71.10
81311;DHT22;70779;52.506;5.492;2023-10-31T17:34:54;13.50;71.10
81311;DHT22;70779;52.506;5.492;2023-10-31T17:37:20;13.50;71.10
81311;DHT22;70779;52.506;5.492;2023-10-31T17:39:46;13.40;71.10
81311;DHT22;70779;52.506;5.492;2023-10-31T17:42:12;13.50;71.20
81311;DHT22;70779;52.506;5.492;2023-10-31T17:44:38;13.50;71.10
81311;DHT22;70779;52.506;5.492;2023-10-31T17:47:05;13.50;71.10
81311;DHT22;70779;52.506;5.492;2023-10-31T17:49:31;13.50;71.00
81311;DHT22;70779;52.506;5.492;2023-10-31T17:51:57;13.50;71.10
81311;DHT22;70779;52.506;5.492;2023-10-31T17:54:28;13.50;71.10
81311;DHT22;70779;52.506;5.492;2023-10-31T17:56:54;13.50;71.10
81311;DHT22;70779;52.506;5.492;2023-10-31T17:59:20;13.40;71.00
81311;DHT22;70779;52.506;5.492;2023-10-31T18:01:49;13.40;71.10
81311;DHT22;70779;52.506;5.492;2023-10-31T18:04:18;13.40;71.20
81311;DHT22;70779;52.506;5.492;2023-10-31T18:06:45;13.30;71.20
81311;DHT22;70779;52.506;5.492;2023-10-31T18:09:11;13.40;71.20
81311;DHT22;70779;52.506;5.492;2023-10-31T18:11:40;13.40;71.10
81311;DHT22;70779;52.506;5.492;2023-10-31T18:14:08;13.40;71.10
81311;DHT22;70779;52.506;5.492;2023-10-31T18:16:35;13.40;71.20
81311;DHT22;70779;52.506;5.492;2023-10-31T18:19:02;13.40;71.20
81311;DHT22;70779;52.506;5.492;2023-10-31T18:21:28;13.40;71.20
81311;DHT22;70779;52.506;5.492;2023-10-31T18:23:55;13.40;71.00
81311;DHT22;70779;52.506;5.492;2023-10-31T18:26:22;13.40;71.00
81311;DHT22;70779;52.506;5.492;2023-10-31T18:28:48;13.30;71.10
81311;DHT22;70779;52.506;5.492;2023-10-31T18:31:17;13.40;71.20
81311;DHT22;70779;52.506;5.492;2023-10-31T18:33:43;13.50;71.20
81311;DHT22;70779;52.506;5.492;2023-10-31T18:36:09;13.50;71.10
81311;DHT22;70779;52.506;5.492;2023-10-31T18:38:35;13.50;71.10
81311;DHT22;70779;52.506;5.492;2023-10-31T18:41:02;13.50;70.90
81311;DHT22;70779;52.506;5.492;2023-10-31T18:43:29;13.50;70.90
81311;DHT22;70779;52.506;5.492;2023-10-31T18:45:55;13.40;71.00
81311;DHT22;70779;52.506;5.492;2023-10-31T18:48:21;13.50;71.00
81311;DHT22;70779;52.506;5.492;2023-10-31T18:50:47;13.50;70.80
81311;DHT22;70779;52.506;5.492;2023-10-31T18:53:13;13.40;70.80
81311;DHT22;70779;52.506;5.492;2023-10-31T18:55:41;13.40;70.80
81311;DHT22;70779;52.506;5.492;2023-10-31T18:58:07;13.30;70.90
81311;DHT22;70779;52.506;5.492;2023-10-31T19:00:34;13.30;70.90
81311;DHT22;70779;52.506;5.492;2023-10-31T19:03:00;13.30;71.00
81311;DHT22;70779;52.506;5.492;2023-10-31T19:05:29;13.30;71.00
81311;DHT22;70779;52.506;5.492;2023-10-31T19:07:57;13.30;71.10
81311;DHT22;70779;52.506;5.492;2023-10-31T19:10:23;13.20;71.00
81311;DHT22;70779;52.506;5.492;2023-10-31T19:12:50;13.10;70.90
81311;DHT22;70779;52.506;5.492;2023-10-31T19:15:16;13.10;70.90
81311;DHT22;70779;52.506;5.492;2023-10-31T19:17:42;13.00;71.00
81311;DHT22;70779;52.506;5.492;2023-10-31T19:20:09;12.90;71.10
81311;DHT22;70779;52.506;5.492;2023-10-31T19:22:35;12.80;71.10
81311;DHT22;70779;52.506;5.492;2023-10-31T19:25:01;12.80;71.20
81311;DHT22;70779;52.506;5.492;2023-10-31T19:27:27;12.70;71.20
81311;DHT22;70779;52.506;5.492;2023-10-31T19:29:54;12.70;71.30
81311;DHT22;70779;52.506;5.492;2023-10-31T19:32:20;12.70;71.30
81311;DHT22;70779;52.506;5.492;2023-10-31T19:34:46;12.60;71.40
81311;DHT22;70779;52.506;5.492;2023-10-31T19:37:12;12.50;71.50
81311;DHT22;70779;52.506;5.492;2023-10-31T19:39:39;12.50;71.60
81311;DHT22;70779;52.506;5.492;2023-10-31T19:42:05;12.50;71.70
81311;DHT22;70779;52.506;5.492;2023-10-31T19:44:31;12.60;71.70
81311;DHT22;70779;52.506;5.492;2023-10-31T19:46:57;12.50;71.80
81311;DHT22;70779;52.506;5.492;2023-10-31T19:49:23;12.50;71.60
81311;DHT22;70779;52.506;5.492;2023-10-31T19:51:49;12.50;71.70
81311;DHT22;70779;52.506;5.492;2023-10-31T19:54:15;12.50;71.80
81311;DHT22;70779;52.506;5.492;2023-10-31T19:56:42;12.50;71.90
81311;DHT22;70779;52.506;5.492;2023-10-31T19:59:08;12.50;72.00
81311;DHT22;70779;52.506;5.492;2023-10-31T20:01:35;12.60;71.90
81311;DHT22;70779;52.506;5.492;2023-10-31T20:04:01;12.60;71.90
81311;DHT22;70779;52.506;5.492;2023-10-31T20:06:28;12.70;71.80
81311;DHT22;70779;52.506;5.492;2023-10-31T20:08:54;12.70;71.60
81311;DHT22;70779;52.506;5.492;2023-10-31T20:11:20;12.70;71.50
81311;DHT22;70779;52.506;5.492;2023-10-31T20:13:49;12.60;71.70
81311;DHT22;70779;52.506;5.492;2023-10-31T20:16:15;12.60;71.70
81311;DHT22;70779;52.506;5.492;2023-10-31T20:18:43;12.50;71.70
81311;DHT22;70779;52.506;5.492;2023-10-31T20:21:09;12.50;71.90
81311;DHT22;70779;52.506;5.492;2023-10-31T20:23:35;12.50;72.00
81311;DHT22;70779;52.506;5.492;2023-10-31T20:26:03;12.50;72.00
81311;DHT22;70779;52.506;5.492;2023-10-31T20:28:29;12.50;72.00
81311;DHT22;70779;52.506;5.492;2023-10-31T20:30:56;12.50;71.90
81311;DHT22;70779;52.506;5.492;2023-10-31T20:33:22;12.50;71.90
81311;DHT22;70779;52.506;5.492;2023-10-31T20:35:48;12.50;72.10
81311;DHT22;70779;52.506;5.492;2023-10-31T20:38:14;12.50;72.40
81311;DHT22;70779;52.506;5.492;2023-10-31T20:40:40;12.50;72.60
81311;DHT22;70779;52.506;5.492;2023-10-31T20:43:06;12.50;72.60
81311;DHT22;70779;52.506;5.492;2023-10-31T20:45:32;12.60;72.60
81311;DHT22;70779;52.506;5.492;2023-10-31T20:48:00;12.70;72.50
81311;DHT22;70779;52.506;5.492;2023-10-31T20:50:26;12.70;72.50
81311;DHT22;70779;52.506;5.492;2023-10-31T20:52:52;12.70;72.50
81311;DHT22;70779;52.506;5.492;2023-10-31T20:55:19;12.60;72.60
81311;DHT22;70779;52.506;5.492;2023-10-31T20:57:45;12.50;72.90
